createdAt,value
2022-07-31T12:10:01.882Z,81.99
2022-07-31T12:10:56.863Z,90.00
2022-07-31T12:11:56.902Z,90.00
2022-07-31T12:12:57.063Z,90.00
2022-07-31T12:13:56.919Z,90.00
2022-07-31T12:14:57.133Z,90.00
2022-07-31T12:15:56.946Z,90.00
2022-07-31T12:16:56.917Z,90.00
2022-07-31T12:17:56.994Z,90.00
2022-07-31T12:18:56.988Z,90.00
2022-07-31T12:19:58.127Z,90.00
2022-07-31T12:20:56.926Z,68.95
2022-07-31T12:21:56.953Z,45.00
2022-07-31T12:22:56.950Z,51.69
2022-07-31T12:23:56.951Z,45.00
2022-07-31T12:24:56.926Z,45.00
2022-07-31T12:25:56.959Z,45.00
2022-07-31T12:26:57.015Z,45.00
2022-07-31T12:27:56.958Z,45.00
2022-07-31T12:28:56.978Z,45.00
2022-07-31T12:29:56.993Z,45.00
2022-07-31T12:30:56.991Z,45.00
2022-07-31T12:31:57.061Z,45.00
2022-07-31T12:32:56.993Z,45.00
2022-07-31T12:33:56.994Z,67.17
2022-07-31T12:34:57.043Z,267.77
2022-07-31T12:35:57.372Z,0.00
2022-07-31T12:36:56.977Z,0.00
2022-07-31T12:37:57.072Z,0.00
2022-07-31T12:38:57.006Z,0.00
2022-07-31T12:40:00.853Z,0.00
2022-07-31T12:40:57.000Z,0.00
2022-07-31T12:41:56.987Z,4.68
2022-07-31T12:42:57.001Z,90.00
2022-07-31T12:43:57.028Z,90.00
2022-07-31T12:44:57.299Z,90.00
2022-07-31T12:45:57.023Z,90.00
2022-07-31T12:46:57.005Z,90.00
2022-07-31T12:47:57.037Z,90.00
2022-07-31T12:48:57.064Z,90.00
2022-07-31T12:49:57.171Z,5.67
2022-07-31T12:50:57.047Z,0.00
2022-07-31T12:51:57.054Z,0.00
2022-07-31T12:52:57.020Z,0.00
2022-07-31T12:53:57.054Z,0.00
2022-07-31T12:54:57.225Z,0.00
2022-07-31T12:55:57.065Z,0.00
2022-07-31T12:56:57.073Z,0.00
2022-07-31T12:57:57.008Z,0.00
2022-07-31T12:58:57.086Z,0.00
2022-07-31T12:59:57.045Z,0.00
2022-07-31T13:00:57.144Z,0.00
2022-07-31T13:01:57.187Z,0.00
2022-07-31T13:02:57.065Z,0.00
2022-07-31T13:03:57.054Z,0.00
2022-07-31T13:04:57.376Z,0.00
2022-07-31T13:05:57.046Z,0.00
2022-07-31T13:06:57.092Z,0.00
2022-07-31T13:07:57.106Z,0.00
2022-07-31T13:08:57.099Z,0.00
2022-07-31T13:10:18.980Z,0.00
2022-07-31T13:10:57.105Z,0.00
2022-07-31T13:11:57.989Z,0.00
2022-07-31T13:12:57.077Z,0.00
2022-07-31T13:13:57.107Z,0.00
2022-07-31T13:14:57.131Z,0.00
2022-07-31T13:15:57.108Z,0.00
2022-07-31T13:16:57.091Z,0.00
2022-07-31T13:17:57.124Z,0.00
2022-07-31T13:18:57.141Z,0.00
2022-07-31T13:19:57.132Z,0.00
2022-07-31T13:20:57.125Z,0.00
2022-07-31T13:21:57.230Z,0.00
2022-07-31T13:22:57.170Z,0.00
2022-07-31T13:23:57.146Z,0.00
2022-07-31T13:24:57.135Z,0.00
2022-07-31T13:25:57.168Z,0.00
2022-07-31T13:26:57.101Z,0.00
2022-07-31T13:27:57.159Z,0.00
2022-07-31T13:28:57.131Z,0.00
2022-07-31T13:29:57.108Z,0.00
2022-07-31T13:30:57.136Z,0.00
2022-07-31T13:31:57.159Z,0.00
2022-07-31T13:32:57.234Z,0.00
2022-07-31T13:33:57.145Z,0.00
2022-07-31T13:35:27.191Z,0.00
2022-07-31T13:35:57.167Z,0.00
2022-07-31T13:36:57.109Z,0.00
2022-07-31T13:37:57.208Z,0.00
2022-07-31T13:38:57.232Z,0.00
2022-07-31T13:39:57.399Z,0.00
2022-07-31T13:40:57.155Z,0.00
2022-07-31T13:41:57.160Z,0.00
2022-07-31T13:42:57.138Z,0.00
2022-07-31T13:44:00.557Z,0.00
2022-07-31T13:44:59.665Z,0.00
2022-07-31T13:45:57.294Z,0.00
2022-07-31T13:46:57.291Z,0.00
2022-07-31T13:48:00.160Z,0.00
2022-07-31T13:48:57.353Z,0.00
2022-07-31T13:49:57.712Z,0.00
2022-07-31T13:50:57.390Z,0.00
2022-07-31T13:51:57.329Z,0.00
2022-07-31T13:52:57.436Z,0.00
2022-07-31T13:53:57.376Z,0.00
2022-07-31T13:54:57.682Z,0.00
2022-07-31T13:55:57.361Z,0.00
2022-07-31T13:56:57.349Z,8.79
2022-07-31T13:57:59.753Z,135.00
2022-07-31T13:58:57.368Z,135.00
2022-07-31T13:59:57.824Z,135.00
2022-07-31T14:01:00.294Z,135.00
2022-07-31T14:02:03.087Z,135.00
2022-07-31T14:02:57.461Z,135.00
2022-07-31T14:03:57.412Z,135.00
2022-07-31T14:04:57.391Z,135.00
2022-07-31T14:05:57.402Z,135.00
2022-07-31T14:06:57.396Z,135.00
2022-07-31T14:08:00.346Z,135.00
2022-07-31T14:08:57.371Z,135.00
2022-07-31T14:09:57.456Z,135.00
2022-07-31T14:10:57.421Z,135.00
2022-07-31T14:11:57.397Z,123.17
2022-07-31T14:12:57.417Z,0.00
2022-07-31T14:13:57.454Z,0.00
2022-07-31T14:14:57.414Z,0.00
2022-07-31T14:15:57.499Z,0.00
2022-07-31T14:16:57.395Z,0.00
2022-07-31T14:17:57.521Z,0.00
2022-07-31T14:18:57.435Z,0.00
2022-07-31T14:19:57.512Z,0.00
2022-07-31T14:20:57.447Z,0.00
2022-07-31T14:21:57.668Z,0.00
2022-07-31T14:22:57.452Z,0.00
2022-07-31T14:23:57.495Z,0.00
2022-07-31T14:24:57.445Z,0.00
2022-07-31T14:25:57.465Z,0.00
2022-07-31T14:26:57.434Z,0.00
2022-07-31T14:27:57.485Z,0.00
2022-07-31T14:28:57.450Z,348.89
2022-07-31T14:29:57.511Z,225.00
2022-07-31T14:30:57.446Z,225.00
2022-07-31T14:31:57.479Z,225.00
2022-07-31T14:32:57.441Z,225.00
2022-07-31T14:33:57.485Z,225.00
2022-07-31T14:34:57.561Z,225.00
2022-07-31T14:35:57.463Z,225.00
2022-07-31T14:36:57.486Z,225.00
2022-07-31T14:37:59.951Z,225.00
2022-07-31T14:38:57.469Z,225.00
2022-07-31T14:39:57.655Z,225.00
2022-07-31T14:40:57.634Z,225.00
2022-07-31T14:41:57.563Z,225.00
2022-07-31T14:42:57.506Z,225.00
2022-07-31T14:43:57.523Z,225.00
2022-07-31T14:44:57.868Z,225.00
2022-07-31T14:45:57.573Z,225.00
2022-07-31T14:46:57.519Z,225.00
2022-07-31T14:47:57.512Z,225.00
2022-07-31T14:48:57.571Z,225.00
2022-07-31T14:50:07.430Z,225.00
2022-07-31T14:50:57.501Z,225.00
2022-07-31T14:51:57.530Z,225.00
2022-07-31T14:52:57.559Z,225.00
2022-07-31T14:53:57.546Z,225.00
2022-07-31T14:54:57.537Z,225.00
2022-07-31T14:56:03.912Z,226.82
2022-07-31T14:57:00.847Z,0.00
2022-07-31T14:57:57.508Z,0.00
2022-07-31T14:58:58.917Z,0.00
2022-07-31T14:59:57.518Z,0.00
2022-07-31T15:00:57.539Z,2.76
2022-07-31T15:01:57.563Z,0.00
2022-07-31T15:02:57.605Z,0.00
2022-07-31T15:03:57.576Z,0.00
2022-07-31T15:04:57.554Z,0.00
2022-07-31T15:06:49.341Z,20.06
2022-07-31T15:07:13.027Z,45.00
2022-07-31T15:07:57.569Z,207.77
2022-07-31T15:08:57.538Z,90.00
2022-07-31T15:09:57.573Z,90.00
2022-07-31T15:10:57.539Z,90.00
2022-07-31T15:12:00.506Z,63.48
2022-07-31T15:12:57.587Z,19.20
2022-07-31T15:13:57.549Z,0.00
2022-07-31T15:14:57.589Z,0.00
2022-07-31T15:15:57.565Z,0.00
2022-07-31T15:16:57.595Z,0.00
2022-07-31T15:17:57.576Z,0.00
2022-07-31T15:18:57.618Z,81.56
2022-07-31T15:19:57.691Z,90.00
2022-07-31T15:20:57.608Z,90.00
2022-07-31T15:22:09.831Z,90.00
2022-07-31T15:22:57.610Z,90.00
2022-07-31T15:23:57.691Z,90.00
2022-07-31T15:24:57.610Z,90.00
2022-07-31T15:25:57.597Z,90.00
2022-07-31T15:26:57.660Z,90.00
2022-07-31T15:27:57.593Z,90.00
2022-07-31T15:28:57.636Z,90.00
2022-07-31T15:30:05.704Z,90.00
